Time;durP1;ratioP1;P1;durP2;ratioP2;P2;SDS_P1;SDS_P2;PMS_P1;PMS_P2;Temp;Humidity;BMP_temperature;BMP_pressure;BME280_temperature;BME280_humidity;BME280_pressure;Samples;Min_cycle;Max_cycle;Signal;HPM_P1;HPM_P2
2022/06/15 00:01:13;;;;;;;2.60;1.20;;;;;;;-128.00;-1.00;-1.00;100220;1299;1003887;-28
2022/06/15 00:03:42;;;;;;;1.90;1.60;;;;;;;-128.00;-1.00;-1.00;100173;1299;1003815;-24
2022/06/15 00:06:14;;;;;;;3.40;2.50;;;;;;;-128.00;-1.00;-1.00;100198;1298;1003560;-25
2022/06/15 00:08:45;;;;;;;3.90;2.40;;;;;;;-128.00;-1.00;-1.00;100166;1299;1003234;-25
2022/06/15 00:11:17;;;;;;;2.00;1.60;;;;;;;-128.00;-1.00;-1.00;100202;1299;1003091;-24
2022/06/15 00:13:46;;;;;;;3.20;2.10;;;;;;;-128.00;-1.00;-1.00;100147;1299;1003270;-24
2022/06/15 00:16:16;;;;;;;3.30;2.30;;;;;;;-128.00;-1.00;-1.00;100181;1298;1003143;-28
2022/06/15 00:18:45;;;;;;;3.00;1.30;;;;;;;-128.00;-1.00;-1.00;100173;1299;1003755;-27
2022/06/15 00:21:16;;;;;;;2.10;1.20;;;;;;;-128.00;-1.00;-1.00;100166;1299;1003633;-24
2022/06/15 00:23:45;;;;;;;2.80;1.50;;;;;;;-128.00;-1.00;-1.00;100166;1299;1004369;-24
2022/06/15 00:26:14;;;;;;;4.40;1.80;;;;;;;-128.00;-1.00;-1.00;100217;1299;1003806;-24
2022/06/15 00:28:43;;;;;;;4.40;1.80;;;;;;;-128.00;-1.00;-1.00;100144;1299;1003769;-30
2022/06/15 00:31:13;;;;;;;4.30;1.80;;;;;;;-128.00;-1.00;-1.00;100202;1299;1003630;-28
2022/06/15 00:33:42;;;;;;;4.00;1.90;;;;;;;-128.00;-1.00;-1.00;100188;1299;1004726;-24
2022/06/15 00:36:13;;;;;;;3.40;1.70;;;;;;;-128.00;-1.00;-1.00;100165;1299;1004655;-24
2022/06/15 00:38:44;;;;;;;3.80;1.90;;;;;;;-128.00;-1.00;-1.00;100071;1299;1003210;-24
2022/06/15 00:41:16;;;;;;;3.00;1.90;;;;;;;-128.00;-1.00;-1.00;100254;1299;1004848;-24
2022/06/15 00:43:48;;;;;;;2.50;1.50;;;;;;;-128.00;-1.00;-1.00;100166;1299;1003385;-24
2022/06/15 00:46:23;;;;;;;2.60;1.60;;;;;;;-128.00;-1.00;-1.00;100099;1299;1003763;-24
2022/06/15 00:48:55;;;;;;;2.60;1.50;;;;;;;-128.00;-1.00;-1.00;100135;1299;1003795;-23
2022/06/15 00:51:24;;;;;;;2.50;1.10;;;;;;;-128.00;-1.00;-1.00;100127;1299;1003696;-28
2022/06/15 00:53:54;;;;;;;2.70;1.30;;;;;;;-128.00;-1.00;-1.00;100178;1299;1003025;-25
2022/06/15 00:56:24;;;;;;;2.40;1.50;;;;;;;-128.00;-1.00;-1.00;100085;1299;1003111;-24
2022/06/15 00:58:56;;;;;;;2.10;1.30;;;;;;;-128.00;-1.00;-1.00;100177;1299;1003693;-28
2022/06/15 01:01:25;;;;;;;2.30;1.00;;;;;;;-128.00;-1.00;-1.00;100187;1299;1003182;-24
2022/06/15 01:03:54;;;;;;;3.70;1.30;;;;;;;-128.00;-1.00;-1.00;100223;1299;1004270;-28
2022/06/15 01:06:32;;;;;;;3.30;1.30;;;;;;;-128.00;-1.00;-1.00;100126;1299;1004553;-25
2022/06/15 01:09:04;;;;;;;2.30;1.30;;;;;;;-128.00;-1.00;-1.00;100072;1300;1004168;-27
2022/06/15 01:11:37;;;;;;;2.50;1.40;;;;;;;-128.00;-1.00;-1.00;100183;1299;1004143;-28
2022/06/15 01:14:12;;;;;;;2.80;1.30;;;;;;;-128.00;-1.00;-1.00;100165;1299;1003963;-24
2022/06/15 01:16:50;;;;;;;2.30;0.90;;;;;;;-128.00;-1.00;-1.00;100193;1299;1004297;-28
2022/06/15 01:19:25;;;;;;;2.20;1.40;;;;;;;-128.00;-1.00;-1.00;100194;1299;1004729;-27
2022/06/15 01:22:07;;;;;;;1.00;0.90;;;;;;;-128.00;-1.00;-1.00;100074;1299;1003969;-28
2022/06/15 01:24:40;;;;;;;2.40;1.10;;;;;;;-128.00;-1.00;-1.00;100187;1298;1003804;-24
2022/06/15 01:27:16;;;;;;;2.70;2.00;;;;;;;-128.00;-1.00;-1.00;100171;1299;1003500;-30
2022/06/15 01:29:47;;;;;;;2.90;2.20;;;;;;;-128.00;-1.00;-1.00;100155;1299;1004043;-27
2022/06/15 01:32:21;;;;;;;3.90;2.30;;;;;;;-128.00;-1.00;-1.00;100137;1299;1003069;-30
2022/06/15 01:34:51;;;;;;;3.50;1.50;;;;;;;-128.00;-1.00;-1.00;100151;1299;1003911;-28
2022/06/15 01:37:23;;;;;;;8.30;2.40;;;;;;;-128.00;-1.00;-1.00;100186;1299;1003408;-28
2022/06/15 01:39:55;;;;;;;4.20;1.60;;;;;;;-128.00;-1.00;-1.00;100215;1299;1004105;-30
2022/06/15 01:42:30;;;;;;;3.70;3.10;;;;;;;-128.00;-1.00;-1.00;100095;1299;1004185;-24
2022/06/15 01:45:04;;;;;;;4.60;3.60;;;;;;;-128.00;-1.00;-1.00;100150;1299;1003287;-25
2022/06/15 01:47:34;;;;;;;7.70;6.40;;;;;;;-128.00;-1.00;-1.00;100177;1299;1003339;-25
2022/06/15 01:50:08;;;;;;;4.00;2.40;;;;;;;-128.00;-1.00;-1.00;100153;1299;1003229;-29
2022/06/15 01:52:40;;;;;;;1.90;1.70;;;;;;;-128.00;-1.00;-1.00;100183;1299;1004009;-24
2022/06/15 01:55:14;;;;;;;4.60;2.40;;;;;;;-128.00;-1.00;-1.00;100112;1299;1002765;-24
2022/06/15 01:57:43;;;;;;;4.10;2.20;;;;;;;-128.00;-1.00;-1.00;100180;1299;1003541;-28
2022/06/15 02:00:16;;;;;;;4.00;1.40;;;;;;;-128.00;-1.00;-1.00;100170;1299;1004312;-28
2022/06/15 02:02:49;;;;;;;6.50;2.10;;;;;;;-128.00;-1.00;-1.00;100153;1299;1004002;-27
2022/06/15 02:05:20;;;;;;;3.60;1.60;;;;;;;-128.00;-1.00;-1.00;100173;1299;1004032;-24
2022/06/15 02:07:57;;;;;;;5.80;2.10;;;;;;;-128.00;-1.00;-1.00;100213;1299;1003343;-28
2022/06/15 02:10:27;;;;;;;2.30;1.90;;;;;;;-128.00;-1.00;-1.00;100187;1299;1002847;-27
2022/06/15 02:13:02;;;;;;;3.30;1.70;;;;;;;-128.00;-1.00;-1.00;100160;1299;1003833;-28
2022/06/15 02:15:31;;;;;;;11.90;2.40;;;;;;;-128.00;-1.00;-1.00;100196;1299;1004574;-24
2022/06/15 02:18:03;;;;;;;6.40;2.30;;;;;;;-128.00;-1.00;-1.00;100172;1299;1003656;-24
2022/06/15 02:20:36;;;;;;;2.40;2.10;;;;;;;-128.00;-1.00;-1.00;100207;1299;1003134;-23
2022/06/15 02:23:07;;;;;;;2.60;1.60;;;;;;;-128.00;-1.00;-1.00;100114;1299;1003854;-27
2022/06/15 02:25:38;;;;;;;2.90;1.50;;;;;;;-128.00;-1.00;-1.00;100174;1299;1002781;-24
2022/06/15 02:28:07;;;;;;;2.20;1.60;;;;;;;-128.00;-1.00;-1.00;100268;1299;1003838;-24
2022/06/15 02:30:37;;;;;;;2.50;1.60;;;;;;;-128.00;-1.00;-1.00;100238;1297;1004153;-30
2022/06/15 02:33:11;;;;;;;2.60;1.30;;;;;;;-128.00;-1.00;-1.00;100068;1299;1005889;-24
2022/06/15 02:35:40;;;;;;;4.40;1.40;;;;;;;-128.00;-1.00;-1.00;100195;1299;1003875;-28
2022/06/15 02:38:09;;;;;;;4.70;2.30;;;;;;;-128.00;-1.00;-1.00;100203;1299;1004228;-25
2022/06/15 02:40:38;;;;;;;3.00;1.50;;;;;;;-128.00;-1.00;-1.00;100059;1299;1004513;-28
2022/06/15 02:43:07;;;;;;;3.40;2.10;;;;;;;-128.00;-1.00;-1.00;100218;1299;1004264;-24
2022/06/15 02:45:38;;;;;;;6.40;1.80;;;;;;;-128.00;-1.00;-1.00;100190;1299;1004470;-30
2022/06/15 02:48:08;;;;;;;2.80;2.40;;;;;;;-128.00;-1.00;-1.00;100202;1299;1004249;-27
2022/06/15 02:50:40;;;;;;;3.80;2.10;;;;;;;-128.00;-1.00;-1.00;100173;1299;1003322;-28
2022/06/15 02:53:13;;;;;;;2.60;2.40;;;;;;;-128.00;-1.00;-1.00;100141;1299;1004392;-28
2022/06/15 02:55:43;;;;;;;2.70;2.10;;;;;;;-128.00;-1.00;-1.00;100114;1299;1004488;-24
2022/06/15 02:58:15;;;;;;;2.50;1.30;;;;;;;-128.00;-1.00;-1.00;100188;1299;1003973;-28
2022/06/15 03:00:44;;;;;;;4.20;1.80;;;;;;;-128.00;-1.00;-1.00;100191;1299;1003508;-28
2022/06/15 03:03:13;;;;;;;1.80;1.10;;;;;;;-128.00;-1.00;-1.00;100184;1299;1003169;-24
2022/06/15 03:05:47;;;;;;;2.90;1.60;;;;;;;-128.00;-1.00;-1.00;100151;1299;1003580;-28
2022/06/15 03:08:17;;;;;;;1.90;1.70;;;;;;;-128.00;-1.00;-1.00;100106;1299;1003955;-28
2022/06/15 03:10:46;;;;;;;4.20;2.00;;;;;;;-128.00;-1.00;-1.00;100191;1299;1003622;-28
2022/06/15 03:13:15;;;;;;;4.70;2.10;;;;;;;-128.00;-1.00;-1.00;99934;1299;1004636;-28
2022/06/15 03:15:45;;;;;;;6.10;2.00;;;;;;;-128.00;-1.00;-1.00;100189;1299;1003791;-23
2022/06/15 03:18:14;;;;;;;4.60;2.50;;;;;;;-128.00;-1.00;-1.00;100217;1299;1004061;-25
2022/06/15 03:20:45;;;;;;;3.30;2.00;;;;;;;-128.00;-1.00;-1.00;100179;1298;1003831;-28
2022/06/15 03:23:15;;;;;;;2.00;1.50;;;;;;;-128.00;-1.00;-1.00;100140;1299;1003215;-24
2022/06/15 03:25:44;;;;;;;2.50;1.30;;;;;;;-128.00;-1.00;-1.00;100154;1299;1003504;-24
2022/06/15 03:28:13;;;;;;;3.10;1.70;;;;;;;-128.00;-1.00;-1.00;100141;1299;1004294;-28
2022/06/15 03:30:42;;;;;;;2.60;1.10;;;;;;;-128.00;-1.00;-1.00;100180;1298;1003375;-24
2022/06/15 03:33:11;;;;;;;2.60;1.30;;;;;;;-128.00;-1.00;-1.00;100191;1299;1004322;-24
2022/06/15 03:35:40;;;;;;;2.40;1.30;;;;;;;-128.00;-1.00;-1.00;100166;1299;1003236;-24
2022/06/15 03:38:10;;;;;;;5.90;1.60;;;;;;;-128.00;-1.00;-1.00;100193;1299;1003286;-28
2022/06/15 03:40:41;;;;;;;2.70;1.70;;;;;;;-128.00;-1.00;-1.00;100147;1299;1004193;-24
2022/06/15 03:43:10;;;;;;;5.00;2.30;;;;;;;-128.00;-1.00;-1.00;100164;1299;1003790;-24
2022/06/15 03:45:39;;;;;;;1.70;1.30;;;;;;;-128.00;-1.00;-1.00;100191;1299;1003755;-24
2022/06/15 03:48:09;;;;;;;6.30;1.80;;;;;;;-128.00;-1.00;-1.00;100193;1299;1004571;-27
2022/06/15 03:50:39;;;;;;;5.90;1.80;;;;;;;-128.00;-1.00;-1.00;100129;1299;1003782;-24
2022/06/15 03:53:08;;;;;;;1.00;1.00;;;;;;;-128.00;-1.00;-1.00;100042;1300;1004502;-28
2022/06/15 03:55:40;;;;;;;5.50;1.60;;;;;;;-128.00;-1.00;-1.00;100065;1299;1003596;-24
2022/06/15 03:58:12;;;;;;;5.50;2.30;;;;;;;-128.00;-1.00;-1.00;100079;1299;1003429;-26
2022/06/15 04:00:41;;;;;;;2.80;1.80;;;;;;;-128.00;-1.00;-1.00;100168;1299;1003839;-28
2022/06/15 04:03:11;;;;;;;5.00;2.10;;;;;;;-128.00;-1.00;-1.00;100238;1299;1004012;-28
2022/06/15 04:05:43;;;;;;;2.30;1.90;;;;;;;-128.00;-1.00;-1.00;100180;1299;1003177;-28
2022/06/15 04:10:47;;;;;;;3.00;2.20;;;;;;;-128.00;-1.00;-1.00;100202;1299;1003731;-30
2022/06/15 04:13:20;;;;;;;2.70;1.80;;;;;;;-128.00;-1.00;-1.00;100210;1299;1003988;-26
2022/06/15 04:15:49;;;;;;;2.80;1.80;;;;;;;-128.00;-1.00;-1.00;99785;1299;1003665;-30
2022/06/15 04:18:20;;;;;;;6.40;1.90;;;;;;;-128.00;-1.00;-1.00;100208;1299;1003684;-26
2022/06/15 04:20:49;;;;;;;2.50;1.60;;;;;;;-128.00;-1.00;-1.00;100249;1299;1003072;-29
2022/06/15 04:23:19;;;;;;;1.90;1.20;;;;;;;-128.00;-1.00;-1.00;100208;1299;1004053;-24
2022/06/15 04:25:52;;;;;;;8.60;1.70;;;;;;;-128.00;-1.00;-1.00;100218;1299;1004229;-28
2022/06/15 04:28:22;;;;;;;2.80;1.90;;;;;;;-128.00;-1.00;-1.00;100159;1299;1004123;-25
2022/06/15 04:30:51;;;;;;;2.60;1.50;;;;;;;-128.00;-1.00;-1.00;100151;1299;1003150;-24
2022/06/15 04:33:22;;;;;;;4.80;1.30;;;;;;;-128.00;-1.00;-1.00;100468;1299;1002956;-27
2022/06/15 04:35:51;;;;;;;2.20;1.60;;;;;;;-128.00;-1.00;-1.00;100187;1299;1003731;-28
2022/06/15 04:38:20;;;;;;;9.00;1.80;;;;;;;-128.00;-1.00;-1.00;100168;1300;1003200;-28
2022/06/15 04:40:50;;;;;;;4.10;1.50;;;;;;;-128.00;-1.00;-1.00;100189;1299;1003360;-28
2022/06/15 04:43:19;;;;;;;5.70;2.10;;;;;;;-128.00;-1.00;-1.00;100202;1299;1003928;-24
2022/06/15 04:45:48;;;;;;;4.20;1.60;;;;;;;-128.00;-1.00;-1.00;100211;1299;1003169;-30
2022/06/15 04:48:18;;;;;;;2.90;1.50;;;;;;;-128.00;-1.00;-1.00;100120;1299;1003309;-30
2022/06/15 04:50:47;;;;;;;2.30;1.60;;;;;;;-128.00;-1.00;-1.00;100184;1299;1003480;-30
2022/06/15 04:53:16;;;;;;;5.20;1.60;;;;;;;-128.00;-1.00;-1.00;100206;1298;1002932;-27
2022/06/15 04:55:45;;;;;;;1.80;1.30;;;;;;;-128.00;-1.00;-1.00;100163;1299;1004190;-30
2022/06/15 04:58:14;;;;;;;2.30;1.60;;;;;;;-128.00;-1.00;-1.00;100171;1299;1003209;-28
2022/06/15 05:00:46;;;;;;;6.20;1.80;;;;;;;-128.00;-1.00;-1.00;100199;1299;1004165;-27
2022/06/15 05:03:15;;;;;;;3.10;1.40;;;;;;;-128.00;-1.00;-1.00;100123;1299;1003565;-24
2022/06/15 05:05:44;;;;;;;4.00;1.70;;;;;;;-128.00;-1.00;-1.00;100178;1299;1003932;-25
2022/06/15 05:08:14;;;;;;;3.00;1.80;;;;;;;-128.00;-1.00;-1.00;100039;1299;1003541;-25
2022/06/15 05:10:44;;;;;;;2.60;1.40;;;;;;;-128.00;-1.00;-1.00;100169;1299;1003273;-28
2022/06/15 05:13:13;;;;;;;4.30;1.80;;;;;;;-128.00;-1.00;-1.00;100205;1299;1002931;-30
2022/06/15 05:15:42;;;;;;;5.60;1.20;;;;;;;-128.00;-1.00;-1.00;100262;1299;1003076;-24
2022/06/15 05:18:11;;;;;;;8.20;1.90;;;;;;;-128.00;-1.00;-1.00;100187;1299;1004584;-25
2022/06/15 05:20:40;;;;;;;1.80;1.20;;;;;;;-128.00;-1.00;-1.00;100167;1299;1004243;-27
2022/06/15 05:23:13;;;;;;;3.90;2.10;;;;;;;-128.00;-1.00;-1.00;100153;1299;1003657;-26
2022/06/15 05:25:42;;;;;;;6.00;1.90;;;;;;;-128.00;-1.00;-1.00;100231;1299;1002963;-30
2022/06/15 05:28:12;;;;;;;3.20;1.80;;;;;;;-128.00;-1.00;-1.00;100124;1302;1003301;-25
2022/06/15 05:30:41;;;;;;;3.60;1.60;;;;;;;-128.00;-1.00;-1.00;100127;1299;1003500;-24
2022/06/15 05:33:10;;;;;;;3.50;1.80;;;;;;;-128.00;-1.00;-1.00;100171;1299;1004651;-28
2022/06/15 05:35:40;;;;;;;5.00;2.10;;;;;;;-128.00;-1.00;-1.00;100189;1299;1003583;-28
2022/06/15 05:38:09;;;;;;;3.80;1.60;;;;;;;-128.00;-1.00;-1.00;100165;1299;1003347;-25
2022/06/15 05:40:38;;;;;;;3.10;1.70;;;;;;;-128.00;-1.00;-1.00;100159;1299;1003228;-28
2022/06/15 05:43:07;;;;;;;6.30;2.30;;;;;;;-128.00;-1.00;-1.00;100187;1299;1003241;-24
2022/06/15 05:45:36;;;;;;;3.80;1.70;;;;;;;-128.00;-1.00;-1.00;100106;1299;1003210;-28
2022/06/15 05:48:06;;;;;;;2.60;1.60;;;;;;;-128.00;-1.00;-1.00;100203;1299;1004148;-24
2022/06/15 05:50:35;;;;;;;4.50;1.50;;;;;;;-128.00;-1.00;-1.00;100178;1299;1003908;-28
2022/06/15 05:53:05;;;;;;;5.20;2.20;;;;;;;-128.00;-1.00;-1.00;100066;1299;1003975;-25
2022/06/15 05:55:34;;;;;;;9.60;1.50;;;;;;;-128.00;-1.00;-1.00;100212;1299;1003860;-25
2022/06/15 05:58:03;;;;;;;1.70;0.90;;;;;;;-128.00;-1.00;-1.00;100182;1299;1003585;-25
2022/06/15 06:00:32;;;;;;;2.30;0.90;;;;;;;-128.00;-1.00;-1.00;100143;1299;1003069;-28
2022/06/15 06:03:02;;;;;;;2.50;0.60;;;;;;;-128.00;-1.00;-1.00;100180;1299;1003424;-25
2022/06/15 06:05:31;;;;;;;2.10;1.00;;;;;;;-128.00;-1.00;-1.00;100254;1299;1003772;-28
2022/06/15 06:08:00;;;;;;;1.90;0.60;;;;;;;-128.00;-1.00;-1.00;100224;1299;1003421;-28
2022/06/15 06:10:29;;;;;;;4.30;1.10;;;;;;;-128.00;-1.00;-1.00;100158;1299;1004059;-24
2022/06/15 06:12:59;;;;;;;1.60;0.60;;;;;;;-128.00;-1.00;-1.00;100310;1299;1002885;-29
2022/06/15 06:15:29;;;;;;;2.90;0.80;;;;;;;-128.00;-1.00;-1.00;100217;1299;1003794;-25
2022/06/15 06:18:01;;;;;;;13.10;1.10;;;;;;;-128.00;-1.00;-1.00;100206;1296;1003509;-28
2022/06/15 06:20:30;;;;;;;2.70;0.60;;;;;;;-128.00;-1.00;-1.00;100178;1299;1003050;-24
2022/06/15 06:22:59;;;;;;;2.80;0.70;;;;;;;-128.00;-1.00;-1.00;100206;1299;1003456;-24
2022/06/15 06:25:29;;;;;;;2.40;0.50;;;;;;;-128.00;-1.00;-1.00;100190;1299;1003717;-28
2022/06/15 06:27:58;;;;;;;1.80;0.50;;;;;;;-128.00;-1.00;-1.00;100120;1299;1004926;-23
2022/06/15 06:30:27;;;;;;;1.30;0.50;;;;;;;-128.00;-1.00;-1.00;100108;1299;1003380;-24
2022/06/15 06:32:56;;;;;;;2.70;0.50;;;;;;;-128.00;-1.00;-1.00;100159;1299;1004660;-28
2022/06/15 06:35:26;;;;;;;0.60;0.40;;;;;;;-128.00;-1.00;-1.00;100143;1299;1004273;-26
2022/06/15 06:37:55;;;;;;;4.20;0.60;;;;;;;-128.00;-1.00;-1.00;100192;1298;1003451;-28
2022/06/15 06:40:24;;;;;;;5.70;0.70;;;;;;;-128.00;-1.00;-1.00;100152;1299;1004389;-24
2022/06/15 06:42:53;;;;;;;3.40;0.60;;;;;;;-128.00;-1.00;-1.00;100147;1299;1003948;-28
2022/06/15 06:45:22;;;;;;;3.00;0.60;;;;;;;-128.00;-1.00;-1.00;100157;1299;1003719;-24
2022/06/15 06:47:52;;;;;;;4.40;0.40;;;;;;;-128.00;-1.00;-1.00;100225;1299;1004091;-27
2022/06/15 06:50:22;;;;;;;3.10;0.50;;;;;;;-128.00;-1.00;-1.00;100166;1299;1003792;-28
2022/06/15 06:52:52;;;;;;;3.10;0.70;;;;;;;-128.00;-1.00;-1.00;100122;1299;1003680;-24
2022/06/15 06:55:22;;;;;;;9.30;1.10;;;;;;;-128.00;-1.00;-1.00;100183;1299;1003977;-25
2022/06/15 06:57:55;;;;;;;1.70;0.60;;;;;;;-128.00;-1.00;-1.00;100045;1299;1004259;-28
2022/06/15 07:00:24;;;;;;;;;;;;;;;-128.00;-1.00;-1.00;100158;1299;1003713;-27
2022/06/15 07:02:53;;;;;;;7.50;0.90;;;;;;;-128.00;-1.00;-1.00;100181;1299;1003300;-27
2022/06/15 07:05:23;;;;;;;1.90;0.60;;;;;;;-128.00;-1.00;-1.00;100208;1299;1004009;-28
2022/06/15 07:07:52;;;;;;;0.80;0.30;;;;;;;-128.00;-1.00;-1.00;100133;1299;1004700;-28
2022/06/15 07:10:22;;;;;;;1.00;0.50;;;;;;;-128.00;-1.00;-1.00;100154;1299;1003939;-28
2022/06/15 07:12:51;;;;;;;0.90;0.40;;;;;;;-128.00;-1.00;-1.00;100289;1299;1003922;-27
2022/06/15 07:15:20;;;;;;;1.80;0.70;;;;;;;-128.00;-1.00;-1.00;100171;1299;1004124;-24
2022/06/15 07:17:49;;;;;;;5.10;0.60;;;;;;;-128.00;-1.00;-1.00;100107;1299;1003467;-23
2022/06/15 07:20:19;;;;;;;2.10;0.60;;;;;;;-128.00;-1.00;-1.00;100163;1298;1003722;-23
2022/06/15 07:22:48;;;;;;;2.30;0.40;;;;;;;-128.00;-1.00;-1.00;100205;1298;1004167;-24
2022/06/15 07:25:17;;;;;;;2.30;0.50;;;;;;;-128.00;-1.00;-1.00;100089;1299;1003900;-24
2022/06/15 07:27:46;;;;;;;1.70;0.40;;;;;;;-128.00;-1.00;-1.00;100180;1299;1003772;-24
2022/06/15 07:30:18;;;;;;;2.00;0.40;;;;;;;-128.00;-1.00;-1.00;100156;1299;1004108;-24
2022/06/15 07:32:47;;;;;;;3.40;0.40;;;;;;;-128.00;-1.00;-1.00;100141;1299;1003511;-28
2022/06/15 07:35:18;;;;;;;1.60;0.50;;;;;;;-128.00;-1.00;-1.00;100138;1299;1003164;-24
2022/06/15 07:37:48;;;;;;;0.50;0.20;;;;;;;-128.00;-1.00;-1.00;100150;1299;1004590;-24
2022/06/15 07:40:19;;;;;;;1.80;0.30;;;;;;;-128.00;-1.00;-1.00;100160;1299;1004605;-26
2022/06/15 07:42:48;;;;;;;0.70;0.30;;;;;;;-128.00;-1.00;-1.00;100094;1299;1003541;-26
2022/06/15 07:45:18;;;;;;;1.80;0.30;;;;;;;-128.00;-1.00;-1.00;100171;1299;1003447;-25
2022/06/15 07:50:20;;;;;;;0.90;0.30;;;;;;;-128.00;-1.00;-1.00;100099;1299;1003107;-26
2022/06/15 07:52:50;;;;;;;1.30;0.30;;;;;;;-128.00;-1.00;-1.00;100098;1299;1003553;-24
2022/06/15 07:55:23;;;;;;;1.90;0.40;;;;;;;-128.00;-1.00;-1.00;100159;1299;1004347;-28
2022/06/15 07:57:52;;;;;;;6.60;0.80;;;;;;;-128.00;-1.00;-1.00;100119;1299;1002728;-27
2022/06/15 08:00:22;;;;;;;1.80;0.60;;;;;;;-128.00;-1.00;-1.00;100085;1299;1003727;-24
2022/06/15 08:02:52;;;;;;;0.80;0.20;;;;;;;-128.00;-1.00;-1.00;100225;1299;1003125;-24
2022/06/15 08:05:21;;;;;;;2.00;0.40;;;;;;;-128.00;-1.00;-1.00;100116;1299;1003525;-28
2022/06/15 08:07:51;;;;;;;4.10;0.40;;;;;;;-128.00;-1.00;-1.00;100166;1299;1003317;-27
2022/06/15 08:10:22;;;;;;;2.70;0.60;;;;;;;-128.00;-1.00;-1.00;100238;1299;1003724;-28
2022/06/15 08:12:51;;;;;;;1.50;0.80;;;;;;;-128.00;-1.00;-1.00;100180;1299;1004298;-24
2022/06/15 08:15:20;;;;;;;0.80;0.40;;;;;;;-128.00;-1.00;-1.00;100201;1299;1003316;-24
2022/06/15 08:17:53;;;;;;;1.80;0.40;;;;;;;-128.00;-1.00;-1.00;100172;1299;1003140;-24
2022/06/15 08:20:27;;;;;;;1.20;0.30;;;;;;;-128.00;-1.00;-1.00;100100;1299;1003472;-27
2022/06/15 08:22:57;;;;;;;2.00;0.50;;;;;;;-128.00;-1.00;-1.00;100111;1299;1003802;-25
2022/06/15 08:25:29;;;;;;;0.70;0.20;;;;;;;-128.00;-1.00;-1.00;100154;1296;1003971;-27
2022/06/15 08:27:58;;;;;;;1.10;0.30;;;;;;;-128.00;-1.00;-1.00;100180;1299;1003686;-24
2022/06/15 08:30:28;;;;;;;1.30;0.30;;;;;;;-128.00;-1.00;-1.00;100076;1299;1003364;-24
2022/06/15 08:32:57;;;;;;;2.60;0.70;;;;;;;-128.00;-1.00;-1.00;100196;1299;1004125;-24
2022/06/15 08:35:26;;;;;;;1.60;0.60;;;;;;;-128.00;-1.00;-1.00;100189;1299;1004599;-27
2022/06/15 08:37:56;;;;;;;2.60;0.40;;;;;;;-128.00;-1.00;-1.00;100119;1299;1003621;-27
2022/06/15 08:40:27;;;;;;;1.70;0.40;;;;;;;-128.00;-1.00;-1.00;100229;1299;1004144;-24
2022/06/15 08:42:58;;;;;;;0.80;0.30;;;;;;;-128.00;-1.00;-1.00;100388;1299;1003282;-24
2022/06/15 08:45:35;;;;;;;2.10;1.10;;;;;;;-128.00;-1.00;-1.00;100155;1299;1003285;-28
2022/06/15 08:48:11;;;;;;;2.50;0.50;;;;;;;-128.00;-1.00;-1.00;100172;1298;1004224;-27
2022/06/15 08:50:44;;;;;;;0.70;0.30;;;;;;;-128.00;-1.00;-1.00;100080;1299;1003513;-28
2022/06/15 08:53:19;;;;;;;1.10;0.20;;;;;;;-128.00;-1.00;-1.00;100173;1299;1003755;-25
2022/06/15 08:55:55;;;;;;;5.00;0.70;;;;;;;-128.00;-1.00;-1.00;100025;1299;1003570;-28
2022/06/15 08:58:32;;;;;;;1.50;0.40;;;;;;;-128.00;-1.00;-1.00;100212;1299;1003272;-28
2022/06/15 09:01:06;;;;;;;3.60;0.40;;;;;;;-128.00;-1.00;-1.00;100123;1299;1003334;-28
2022/06/15 09:03:42;;;;;;;1.00;0.40;;;;;;;-128.00;-1.00;-1.00;100068;1299;1003876;-24
2022/06/15 09:06:21;;;;;;;2.10;0.50;;;;;;;-128.00;-1.00;-1.00;100128;1299;1003877;-24
2022/06/15 09:08:57;;;;;;;1.30;0.30;;;;;;;-128.00;-1.00;-1.00;100190;1299;1002871;-28
2022/06/15 09:11:33;;;;;;;0.60;0.40;;;;;;;-128.00;-1.00;-1.00;100168;1299;1003269;-25
2022/06/15 09:14:11;;;;;;;2.60;0.40;;;;;;;-128.00;-1.00;-1.00;100176;1299;1003653;-28
2022/06/15 09:16:47;;;;;;;1.70;0.40;;;;;;;-128.00;-1.00;-1.00;100151;1299;1004014;-26
2022/06/15 09:19:20;;;;;;;1.60;0.20;;;;;;;-128.00;-1.00;-1.00;100042;1299;1004044;-28
2022/06/15 09:21:57;;;;;;;2.00;0.50;;;;;;;-128.00;-1.00;-1.00;100139;1299;1003926;-24
2022/06/15 09:24:30;;;;;;;0.60;0.40;;;;;;;-128.00;-1.00;-1.00;100076;1299;1003724;-25
2022/06/15 09:27:01;;;;;;;0.70;0.30;;;;;;;-128.00;-1.00;-1.00;100205;1299;1003340;-28
2022/06/15 09:29:34;;;;;;;1.00;0.40;;;;;;;-128.00;-1.00;-1.00;100118;1299;1003505;-28
2022/06/15 09:32:07;;;;;;;2.40;0.30;;;;;;;-128.00;-1.00;-1.00;100026;1299;1004189;-27
2022/06/15 09:34:39;;;;;;;1.80;0.40;;;;;;;-128.00;-1.00;-1.00;100184;1299;1003657;-24
2022/06/15 09:37:13;;;;;;;2.20;0.70;;;;;;;-128.00;-1.00;-1.00;100188;1299;1003811;-28
2022/06/15 09:39:43;;;;;;;1.60;0.20;;;;;;;-128.00;-1.00;-1.00;100243;1299;1003733;-24
2022/06/15 09:42:20;;;;;;;1.00;0.30;;;;;;;-128.00;-1.00;-1.00;100306;1299;1003563;-24
2022/06/15 09:44:56;;;;;;;2.20;0.60;;;;;;;-128.00;-1.00;-1.00;100237;1299;1003440;-28
2022/06/15 09:47:45;;;;;;;2.00;0.40;;;;;;;-128.00;-1.00;-1.00;100298;1299;1003448;-28
2022/06/15 09:50:22;;;;;;;1.10;0.30;;;;;;;-128.00;-1.00;-1.00;100148;1299;1003982;-28
2022/06/15 09:53:02;;;;;;;2.90;0.50;;;;;;;-128.00;-1.00;-1.00;100173;1299;1004028;-24
2022/06/15 09:55:36;;;;;;;4.70;0.80;;;;;;;-128.00;-1.00;-1.00;100132;1299;1003076;-28
2022/06/15 09:58:06;;;;;;;1.00;0.50;;;;;;;-128.00;-1.00;-1.00;100212;1299;1003869;-24
2022/06/15 10:00:36;;;;;;;1.00;0.20;;;;;;;-128.00;-1.00;-1.00;100172;1299;1003810;-24
2022/06/15 10:03:11;;;;;;;3.40;0.50;;;;;;;-128.00;-1.00;-1.00;100114;1299;1004305;-24
2022/06/15 10:05:41;;;;;;;1.10;0.40;;;;;;;-128.00;-1.00;-1.00;100175;1299;1004147;-24
2022/06/15 10:08:12;;;;;;;3.70;0.40;;;;;;;-128.00;-1.00;-1.00;100081;1299;1004076;-24
2022/06/15 10:10:44;;;;;;;1.90;0.30;;;;;;;-128.00;-1.00;-1.00;100178;1299;1005127;-28
2022/06/15 10:13:33;;;;;;;1.00;0.60;;;;;;;-128.00;-1.00;-1.00;100173;1299;1003940;-28
2022/06/15 10:16:05;;;;;;;1.10;0.20;;;;;;;-128.00;-1.00;-1.00;100174;1299;1003847;-28
2022/06/15 10:18:37;;;;;;;2.20;0.60;;;;;;;-128.00;-1.00;-1.00;100097;1299;1004355;-28
2022/06/15 10:21:06;;;;;;;0.70;0.30;;;;;;;-128.00;-1.00;-1.00;100097;1299;1003061;-28
2022/06/15 10:23:40;;;;;;;0.60;0.20;;;;;;;-128.00;-1.00;-1.00;100150;1299;1003341;-28
2022/06/15 10:26:23;;;;;;;1.20;0.20;;;;;;;-128.00;-1.00;-1.00;100164;1299;1004151;-24
2022/06/15 10:28:53;;;;;;;0.70;0.30;;;;;;;-128.00;-1.00;-1.00;100201;1299;1003778;-23
2022/06/15 10:31:28;;;;;;;3.80;0.60;;;;;;;-128.00;-1.00;-1.00;100168;1298;1003096;-28
2022/06/15 10:33:57;;;;;;;3.40;0.40;;;;;;;-128.00;-1.00;-1.00;100140;1299;1003802;-24
2022/06/15 10:36:27;;;;;;;1.70;0.60;;;;;;;-128.00;-1.00;-1.00;100130;1299;1003063;-28
2022/06/15 10:39:02;;;;;;;4.50;1.00;;;;;;;-128.00;-1.00;-1.00;100211;1299;1003409;-28
2022/06/15 10:44:13;;;;;;;0.80;0.40;;;;;;;-128.00;-1.00;-1.00;100307;1299;1004150;-24
2022/06/15 10:46:48;;;;;;;1.80;0.50;;;;;;;-128.00;-1.00;-1.00;100205;1298;1003922;-24
2022/06/15 10:49:18;;;;;;;4.10;0.50;;;;;;;-128.00;-1.00;-1.00;100126;1299;1004000;-27
2022/06/15 10:51:47;;;;;;;2.00;0.30;;;;;;;-128.00;-1.00;-1.00;100195;1299;1003896;-27
2022/06/15 10:54:22;;;;;;;3.00;0.50;;;;;;;-128.00;-1.00;-1.00;100208;1299;1003722;-24
2022/06/15 11:02:10;;;;;;;1.20;0.40;;;;;;;-128.00;-1.00;-1.00;100135;1299;1004142;-24
2022/06/15 11:04:44;;;;;;;4.30;0.30;;;;;;;-128.00;-1.00;-1.00;100090;1299;1004378;-27
2022/06/15 11:07:20;;;;;;;9.90;0.30;;;;;;;-128.00;-1.00;-1.00;100173;1299;1003790;-27
2022/06/15 11:09:50;;;;;;;2.70;0.50;;;;;;;-128.00;-1.00;-1.00;100107;1299;1003994;-28
2022/06/15 11:12:22;;;;;;;2.80;0.40;;;;;;;-128.00;-1.00;-1.00;100168;1299;1004299;-27
2022/06/15 11:14:56;;;;;;;1.50;0.40;;;;;;;-128.00;-1.00;-1.00;100177;1299;1004602;-27
2022/06/15 11:18:01;;;;;;;1.40;0.30;;;;;;;-128.00;-1.00;-1.00;100195;1299;1003772;-27
2022/06/15 11:20:21;;;;;;;1.60;0.60;;;;;;;-128.00;-1.00;-1.00;100185;1299;1003975;-24
2022/06/15 11:22:52;;;;;;;1.40;0.50;;;;;;;-128.00;-1.00;-1.00;100136;1298;1004717;-27
2022/06/15 11:25:25;;;;;;;2.80;0.40;;;;;;;-128.00;-1.00;-1.00;100079;1299;1003353;-28
2022/06/15 11:28:00;;;;;;;2.20;0.40;;;;;;;-128.00;-1.00;-1.00;100190;1299;1003128;-28
2022/06/15 11:30:34;;;;;;;1.60;0.60;;;;;;;-128.00;-1.00;-1.00;100160;1299;1003664;-27
2022/06/15 11:33:06;;;;;;;1.00;0.40;;;;;;;-128.00;-1.00;-1.00;100132;1299;1004386;-24
2022/06/15 11:35:40;;;;;;;1.30;0.30;;;;;;;-128.00;-1.00;-1.00;100153;1299;1004299;-24
2022/06/15 11:38:13;;;;;;;1.30;0.50;;;;;;;-128.00;-1.00;-1.00;100154;1299;1003356;-24
2022/06/15 11:40:47;;;;;;;7.90;0.70;;;;;;;-128.00;-1.00;-1.00;100087;1298;1004523;-24
2022/06/15 11:43:20;;;;;;;1.30;0.50;;;;;;;-128.00;-1.00;-1.00;100094;1299;1003805;-27
2022/06/15 11:45:54;;;;;;;5.50;0.50;;;;;;;-128.00;-1.00;-1.00;100148;1299;1003667;-28
2022/06/15 11:48:23;;;;;;;1.30;0.40;;;;;;;-128.00;-1.00;-1.00;100175;1299;1003787;-24